<?xml version="1.0" encoding="UTF-8" standalone="no" ?>
<gpx xmlns="http://www.topografix.com/GPX/1/1" xmlns:xsi="http://www.w3.org/2001/XMLSchema-instance" xsi:schemaLocation="http://www.topografix.com/GPX/1/1 http://www.topografix.com/GPX/1/1/gpx.xsd" version="1.1" creator="VisuGPX - https://www.visugpx.com">
  <metadata>
    <name>Autour de la côte roux Voujeaucourt</name>
  </metadata>
  <trk>
    <name><![CDATA[Autour de la côte roux Voujeaucourt]]></name>
    <trkseg>
      <trkpt lat="47.46628" lon="6.78273">
        <ele>365.6</ele>
        <time>2022-02-11T20:34:58+01:00</time>
      </trkpt>
      <trkpt lat="47.46524" lon="6.78261">
        <ele>373.3</ele>
        <time>2022-02-11T20:38:20+01:00</time>
      </trkpt>
      <trkpt lat="47.46489" lon="6.78276">
        <ele>375.8</ele>
        <time>2022-02-11T20:39:22+01:00</time>
      </trkpt>
      <trkpt lat="47.46416" lon="6.78113">
        <ele>378</ele>
        <time>2022-02-11T20:42:45+01:00</time>
      </trkpt>
      <trkpt lat="47.46355" lon="6.78081">
        <ele>381.9</ele>
        <time>2022-02-11T20:44:10+01:00</time>
      </trkpt>
      <trkpt lat="47.46301" lon="6.78001">
        <ele>399.4</ele>
        <time>2022-02-11T20:48:42+01:00</time>
      </trkpt>
      <trkpt lat="47.46198" lon="6.77338">
        <ele>389.7</ele>
        <time>2022-02-11T20:58:02+01:00</time>
      </trkpt>
      <trkpt lat="47.46214" lon="6.77164">
        <ele>383</ele>
        <time>2022-02-11T21:00:18+01:00</time>
      </trkpt>
      <trkpt lat="47.46194" lon="6.769">
        <ele>369.4</ele>
        <time>2022-02-11T21:03:43+01:00</time>
      </trkpt>
      <trkpt lat="47.46149" lon="6.76741">
        <ele>359.4</ele>
        <time>2022-02-11T21:05:57+01:00</time>
      </trkpt>
      <trkpt lat="47.46075" lon="6.76952">
        <ele>391.7</ele>
        <time>2022-02-11T21:13:29+01:00</time>
      </trkpt>
      <trkpt lat="47.46028" lon="6.77065">
        <ele>405.7</ele>
        <time>2022-02-11T21:17:25+01:00</time>
      </trkpt>
      <trkpt lat="47.45916" lon="6.77167">
        <ele>416</ele>
        <time>2022-02-11T21:21:58+01:00</time>
      </trkpt>
      <trkpt lat="47.45871" lon="6.777">
        <ele>416</ele>
        <time>2022-02-11T21:30:27+01:00</time>
      </trkpt>
      <trkpt lat="47.45871" lon="6.77728">
        <ele>414</ele>
        <time>2022-02-11T18:08:17+01:00</time>
      </trkpt>
      <trkpt lat="47.45902" lon="6.77935">
        <ele>404.6</ele>
        <time>2022-02-11T18:11:01+01:00</time>
      </trkpt>
      <trkpt lat="47.45944" lon="6.78156">
        <ele>400.9</ele>
        <time>2022-02-11T18:13:59+01:00</time>
      </trkpt>
      <trkpt lat="47.45975" lon="6.78275">
        <ele>401.4</ele>
        <time>2022-02-11T18:15:38+01:00</time>
      </trkpt>
      <trkpt lat="47.45991" lon="6.78345">
        <ele>398.5</ele>
        <time>2022-02-11T18:16:35+01:00</time>
      </trkpt>
      <trkpt lat="47.46" lon="6.78382">
        <ele>397.2</ele>
        <time>2022-02-11T18:17:06+01:00</time>
      </trkpt>
      <trkpt lat="47.45983" lon="6.78411">
        <ele>394.4</ele>
        <time>2022-02-11T18:17:36+01:00</time>
      </trkpt>
      <trkpt lat="47.45973" lon="6.78417">
        <ele>393.1</ele>
        <time>2022-02-11T18:17:48+01:00</time>
      </trkpt>
      <trkpt lat="47.45938" lon="6.78463">
        <ele>386.2</ele>
        <time>2022-02-11T18:18:56+01:00</time>
      </trkpt>
      <trkpt lat="47.45932" lon="6.78568">
        <ele>382.5</ele>
        <time>2022-02-11T18:20:17+01:00</time>
      </trkpt>
      <trkpt lat="47.45832" lon="6.78469">
        <ele>369.9</ele>
        <time>2022-02-11T18:22:34+01:00</time>
      </trkpt>
      <trkpt lat="47.45908" lon="6.78741">
        <ele>376.2</ele>
        <time>2022-02-11T18:27:14+01:00</time>
      </trkpt>
      <trkpt lat="47.46047" lon="6.79185">
        <ele>389.1</ele>
        <time>2022-02-11T18:35:36+01:00</time>
      </trkpt>
      <trkpt lat="47.46165" lon="6.79298">
        <ele>392.1</ele>
        <time>2022-02-11T18:38:27+01:00</time>
      </trkpt>
      <trkpt lat="47.46198" lon="6.79257">
        <ele>389</ele>
        <time>2022-02-11T18:39:16+01:00</time>
      </trkpt>
      <trkpt lat="47.46345" lon="6.79518">
        <ele>381.4</ele>
        <time>2022-02-11T18:43:54+01:00</time>
      </trkpt>
      <trkpt lat="47.46415" lon="6.79387">
        <ele>382.1</ele>
        <time>2022-02-11T18:46:13+01:00</time>
      </trkpt>
      <trkpt lat="47.46461" lon="6.79318">
        <ele>385.7</ele>
        <time>2022-02-11T18:48:09+01:00</time>
      </trkpt>
      <trkpt lat="47.46457" lon="6.7946">
        <ele>381.9</ele>
        <time>2022-02-11T18:49:59+01:00</time>
      </trkpt>
      <trkpt lat="47.46457" lon="6.7955">
        <ele>379</ele>
        <time>2022-02-11T18:51:09+01:00</time>
      </trkpt>
      <trkpt lat="47.46611" lon="6.79564">
        <ele>377.4</ele>
        <time>2022-02-11T18:54:06+01:00</time>
      </trkpt>
      <trkpt lat="47.46696" lon="6.79506">
        <ele>378.7</ele>
        <time>2022-02-11T18:55:52+01:00</time>
      </trkpt>
      <trkpt lat="47.46768" lon="6.79193">
        <ele>371</ele>
        <time>2022-02-11T19:00:18+01:00</time>
      </trkpt>
      <trkpt lat="47.46743" lon="6.78982">
        <ele>367.6</ele>
        <time>2022-02-11T19:03:04+01:00</time>
      </trkpt>
      <trkpt lat="47.46701" lon="6.78866">
        <ele>370.3</ele>
        <time>2022-02-11T19:04:56+01:00</time>
      </trkpt>
      <trkpt lat="47.46721" lon="6.78794">
        <ele>368.1</ele>
        <time>2022-02-11T19:05:56+01:00</time>
      </trkpt>
      <trkpt lat="47.46737" lon="6.78698">
        <ele>366.4</ele>
        <time>2022-02-11T19:07:12+01:00</time>
      </trkpt>
      <trkpt lat="47.46776" lon="6.78655">
        <ele>362.2</ele>
        <time>2022-02-11T19:08:08+01:00</time>
      </trkpt>
      <trkpt lat="47.46744" lon="6.78568">
        <ele>365.4</ele>
        <time>2022-02-11T19:09:45+01:00</time>
      </trkpt>
      <trkpt lat="47.46764" lon="6.7824">
        <ele>360.5</ele>
        <time>2022-02-11T19:13:59+01:00</time>
      </trkpt>
      <trkpt lat="47.46838" lon="6.7824">
        <ele>357.1</ele>
        <time>2022-02-11T19:15:24+01:00</time>
      </trkpt>
      <trkpt lat="47.46842" lon="6.78385">
        <ele>358.1</ele>
        <time>2022-02-11T19:17:37+01:00</time>
      </trkpt>
      <trkpt lat="47.46817" lon="6.78487">
        <ele>358.5</ele>
        <time>2022-02-11T19:19:01+01:00</time>
      </trkpt>
      <trkpt lat="47.46805" lon="6.78565">
        <ele>359.1</ele>
        <time>2022-02-11T19:20:13+01:00</time>
      </trkpt>
      <trkpt lat="47.46799" lon="6.78605">
        <ele>359.7</ele>
        <time>2022-02-11T19:20:55+01:00</time>
      </trkpt>
      <trkpt lat="47.46903" lon="6.78573">
        <ele>346.1</ele>
        <time>2022-02-11T19:22:56+01:00</time>
      </trkpt>
      <trkpt lat="47.46979" lon="6.78391">
        <ele>340.5</ele>
        <time>2022-02-11T19:25:48+01:00</time>
      </trkpt>
      <trkpt lat="47.47031" lon="6.78402">
        <ele>347.3</ele>
        <time>2022-02-11T19:28:00+01:00</time>
      </trkpt>
      <trkpt lat="47.47084" lon="6.78428">
        <ele>355.9</ele>
        <time>2022-02-11T19:30:06+01:00</time>
      </trkpt>
      <trkpt lat="47.47156" lon="6.78449">
        <ele>361.3</ele>
        <time>2022-02-11T19:32:53+01:00</time>
      </trkpt>
      <trkpt lat="47.47231" lon="6.78492">
        <ele>363.5</ele>
        <time>2022-02-11T19:34:35+01:00</time>
      </trkpt>
      <trkpt lat="47.47425" lon="6.78585">
        <ele>367.4</ele>
        <time>2022-02-11T19:38:59+01:00</time>
      </trkpt>
      <trkpt lat="47.47493" lon="6.78678">
        <ele>358.2</ele>
        <time>2022-02-11T19:40:45+01:00</time>
      </trkpt>
      <trkpt lat="47.4762" lon="6.78889">
        <ele>367.3</ele>
        <time>2022-02-11T19:46:17+01:00</time>
      </trkpt>
      <trkpt lat="47.47757" lon="6.78741">
        <ele>358.3</ele>
        <time>2022-02-11T19:49:31+01:00</time>
      </trkpt>
      <trkpt lat="47.47744" lon="6.78666">
        <ele>355.4</ele>
        <time>2022-02-11T19:50:31+01:00</time>
      </trkpt>
      <trkpt lat="47.47675" lon="6.78478">
        <ele>342.8</ele>
        <time>2022-02-11T19:53:16+01:00</time>
      </trkpt>
      <trkpt lat="47.47652" lon="6.7844">
        <ele>342.5</ele>
        <time>2022-02-11T19:53:56+01:00</time>
      </trkpt>
      <trkpt lat="47.47632" lon="6.78402">
        <ele>350.3</ele>
        <time>2022-02-11T19:54:43+01:00</time>
      </trkpt>
      <trkpt lat="47.4756" lon="6.78281">
        <ele>354.3</ele>
        <time>2022-02-11T19:57:09+01:00</time>
      </trkpt>
      <trkpt lat="47.47454" lon="6.78124">
        <ele>351.1</ele>
        <time>2022-02-11T20:00:10+01:00</time>
      </trkpt>
      <trkpt lat="47.47272" lon="6.77898">
        <ele>349.7</ele>
        <time>2022-02-11T20:05:14+01:00</time>
      </trkpt>
      <trkpt lat="47.47186" lon="6.77777">
        <ele>347.9</ele>
        <time>2022-02-11T20:07:30+01:00</time>
      </trkpt>
      <trkpt lat="47.47119" lon="6.77771">
        <ele>340.6</ele>
        <time>2022-02-11T20:08:46+01:00</time>
      </trkpt>
      <trkpt lat="47.47119" lon="6.77701">
        <ele>337.3</ele>
        <time>2022-02-11T20:09:40+01:00</time>
      </trkpt>
      <trkpt lat="47.47074" lon="6.77667">
        <ele>331</ele>
        <time>2022-02-11T20:10:38+01:00</time>
      </trkpt>
      <trkpt lat="47.47008" lon="6.77574">
        <ele>339.2</ele>
        <time>2022-02-11T20:12:54+01:00</time>
      </trkpt>
      <trkpt lat="47.46951" lon="6.7747">
        <ele>343.5</ele>
        <time>2022-02-11T20:15:50+01:00</time>
      </trkpt>
      <trkpt lat="47.46851" lon="6.77441">
        <ele>351.3</ele>
        <time>2022-02-11T20:19:22+01:00</time>
      </trkpt>
      <trkpt lat="47.46809" lon="6.77538">
        <ele>358.5</ele>
        <time>2022-02-11T20:21:42+01:00</time>
      </trkpt>
      <trkpt lat="47.46799" lon="6.77639">
        <ele>360.6</ele>
        <time>2022-02-11T20:23:01+01:00</time>
      </trkpt>
      <trkpt lat="47.46755" lon="6.77857">
        <ele>359</ele>
        <time>2022-02-11T20:26:18+01:00</time>
      </trkpt>
      <trkpt lat="47.4672" lon="6.77941">
        <ele>361.7</ele>
        <time>2022-02-11T20:28:06+01:00</time>
      </trkpt>
      <trkpt lat="47.46711" lon="6.78046">
        <ele>355.7</ele>
        <time>2022-02-11T20:29:28+01:00</time>
      </trkpt>
      <trkpt lat="47.46698" lon="6.78139">
        <ele>355.7</ele>
        <time>2022-02-11T20:30:41+01:00</time>
      </trkpt>
      <trkpt lat="47.46645" lon="6.78264">
        <ele>364.2</ele>
        <time>2022-02-11T20:34:16+01:00</time>
      </trkpt>
      <trkpt lat="47.46628" lon="6.78273">
        <ele>365.6</ele>
        <time>2022-02-11T20:34:58+01:00</time>
      </trkpt>
    </trkseg>
  </trk>
</gpx>